Austin (LCRA Redbud)'s Hourly Summary for Tuesday, April 18, 2017
Hour Temp
(f)
RH
(%)
Solar Rad.
(MJ/m2)
Rainfall
(in)
Wind
(mph)
4/18/2017 12:00 AM 64 80 0 0 0.34
4/18/2017 1:00 AM 63 81 0 0 0.24
4/18/2017 2:00 AM 62 88 0 0 0.06
4/18/2017 3:00 AM 61 90 0 0 0
4/18/2017 4:00 AM 62 91 0 0 0.03
4/18/2017 5:00 AM 62 89 0 0 0.46
4/18/2017 6:00 AM 62 88 0 0 0.22
4/18/2017 7:00 AM 61 91 0 0 0.25
4/18/2017 8:00 AM 63 90 0.04 0 0.05
4/18/2017 9:00 AM 65 85 0.25 0 0.05
4/18/2017 10:00 AM 68 80 0.65 0 0.3
4/18/2017 11:00 AM 71 70 1.24 0 1.05
4/18/2017 12:00 PM 73 63 1.61 0 1.32
4/18/2017 1:00 PM 76 57 2.11 0 1.42
4/18/2017 2:00 PM 76 55 2.17 0 1.57
4/18/2017 3:00 PM 80 50 3.1 0 0.75
4/18/2017 4:00 PM 81 47 2.35 0 1.51
4/18/2017 5:00 PM 78 56 0.68 0 1.39
4/18/2017 6:00 PM 77 61 0.81 0 2.52
4/18/2017 7:00 PM 76 60 0.53 0 1.47
4/18/2017 8:00 PM 75 67 0.26 0 1.86
4/18/2017 9:00 PM 72 70 0 0 1.58
4/18/2017 10:00 PM 71 79 0 0 0.65
4/18/2017 11:00 PM 71 83 0 0 1.14
Data Summary 69 73 15.80 0.00 0.84